createdAt,value
2022-12-08T00:01:11.660Z,3.45
2022-12-08T00:03:38.382Z,2.95
2022-12-08T00:06:23.799Z,3.85
2022-12-08T00:09:09.232Z,3.22
2022-12-08T00:11:35.654Z,3.80
2022-12-08T00:14:02.026Z,3.67
2022-12-08T00:16:28.576Z,3.95
2022-12-08T00:18:55.057Z,3.78
2022-12-08T00:21:21.443Z,3.50
2022-12-08T00:23:47.907Z,3.63
2022-12-08T00:26:14.268Z,3.50
2022-12-08T00:28:40.768Z,4.10
2022-12-08T00:31:08.562Z,3.30
2022-12-08T00:33:35.072Z,3.50
2022-12-08T00:36:08.176Z,3.75
2022-12-08T00:38:34.950Z,3.92
2022-12-08T00:41:01.481Z,3.63
2022-12-08T00:43:27.934Z,3.10
2022-12-08T00:45:54.401Z,3.00
2022-12-08T00:48:20.998Z,3.22
2022-12-08T00:50:47.390Z,2.63
2022-12-08T00:53:13.813Z,2.67
2022-12-08T00:55:40.178Z,2.55
2022-12-08T00:58:06.571Z,3.15
2022-12-08T01:00:32.961Z,2.70
2022-12-08T01:02:59.462Z,3.50
2022-12-08T01:05:26.256Z,2.60
2022-12-08T01:07:52.650Z,2.85
2022-12-08T01:10:19.074Z,2.78
2022-12-08T01:12:45.439Z,2.43
2022-12-08T01:15:11.842Z,2.10
2022-12-08T01:17:38.405Z,2.22
2022-12-08T01:20:05.572Z,2.40
2022-12-08T01:22:33.515Z,3.15
2022-12-08T01:24:59.939Z,2.45
2022-12-08T01:27:26.537Z,2.50
2022-12-08T01:29:52.895Z,2.65
2022-12-08T01:32:19.411Z,2.78
2022-12-08T01:34:45.787Z,2.45
2022-12-08T01:37:12.684Z,2.57
2022-12-08T01:39:41.191Z,2.85
2022-12-08T01:42:18.597Z,2.78
2022-12-08T01:44:44.941Z,2.83
2022-12-08T01:47:11.775Z,2.30
2022-12-08T01:49:38.193Z,2.92
2022-12-08T01:52:25.299Z,2.92
2022-12-08T01:54:56.609Z,3.15
2022-12-08T01:57:42.695Z,2.97
2022-12-08T02:00:10.897Z,2.80
2022-12-08T02:02:46.652Z,3.17
2022-12-08T02:05:13.675Z,3.55
2022-12-08T02:07:40.343Z,3.05
2022-12-08T02:10:07.186Z,2.65
2022-12-08T02:12:33.906Z,2.92
2022-12-08T02:15:04.693Z,2.47
2022-12-08T02:17:50.588Z,2.42
2022-12-08T02:20:30.486Z,2.60
2022-12-08T02:22:56.895Z,3.17
2022-12-08T02:25:23.319Z,2.88
2022-12-08T02:28:08.560Z,3.33
2022-12-08T02:30:53.603Z,3.08
2022-12-08T02:33:38.094Z,3.03
2022-12-08T02:36:07.469Z,2.70
2022-12-08T02:38:45.859Z,3.83
2022-12-08T02:41:17.634Z,2.95
2022-12-08T02:43:59.222Z,2.80
2022-12-08T02:46:29.013Z,2.80
2022-12-08T02:48:55.845Z,3.20
2022-12-08T02:51:22.212Z,3.00
2022-12-08T02:53:48.743Z,2.95
2022-12-08T02:56:21.023Z,2.88
2022-12-08T02:58:56.518Z,2.50
2022-12-08T03:01:35.100Z,2.33
2022-12-08T03:04:08.812Z,2.20
2022-12-08T03:06:41.278Z,2.22
2022-12-08T03:09:14.355Z,2.25
2022-12-08T03:11:56.304Z,2.00
2022-12-08T03:14:22.896Z,1.75
2022-12-08T03:16:51.828Z,1.65
2022-12-08T03:19:23.409Z,1.67
2022-12-08T03:21:53.908Z,1.75
2022-12-08T03:24:22.892Z,1.73
2022-12-08T03:26:52.622Z,2.20
2022-12-08T03:29:19.324Z,2.10
2022-12-08T03:31:53.923Z,2.58
2022-12-08T03:34:21.982Z,2.42
2022-12-08T03:36:48.373Z,2.35
2022-12-08T03:39:14.947Z,2.42
2022-12-08T03:41:41.353Z,2.40
2022-12-08T03:44:07.815Z,3.17
2022-12-08T03:46:34.184Z,2.53
2022-12-08T03:49:00.556Z,2.55
2022-12-08T03:51:27.366Z,2.38
2022-12-08T03:53:53.753Z,2.63
2022-12-08T03:56:25.932Z,2.28
2022-12-08T03:58:52.459Z,2.42
2022-12-08T04:01:19.047Z,2.90
2022-12-08T04:03:45.564Z,3.15
2022-12-08T04:06:12.373Z,2.92
2022-12-08T04:08:38.746Z,2.60
2022-12-08T04:11:06.539Z,3.20
2022-12-08T04:13:36.954Z,2.83
2022-12-08T04:16:03.869Z,2.92
2022-12-08T04:18:30.553Z,2.38
2022-12-08T04:20:56.923Z,2.78
2022-12-08T04:23:23.527Z,3.05
2022-12-08T04:25:51.463Z,2.75
2022-12-08T04:28:17.854Z,3.05
2022-12-08T04:30:44.430Z,2.78
2022-12-08T04:33:10.915Z,2.72
2022-12-08T04:35:37.342Z,2.78
2022-12-08T04:38:03.917Z,3.10
2022-12-08T04:40:30.750Z,2.65
2022-12-08T04:42:57.252Z,2.90
2022-12-08T04:45:23.808Z,2.58
2022-12-08T04:47:50.357Z,2.28
2022-12-08T04:50:16.740Z,2.55
2022-12-08T04:52:43.174Z,2.28
2022-12-08T04:55:09.688Z,2.50
2022-12-08T04:57:36.311Z,2.28
2022-12-08T05:00:03.385Z,2.05
2022-12-08T05:02:30.052Z,1.90
2022-12-08T05:04:56.722Z,2.00
2022-12-08T05:07:23.237Z,2.00
2022-12-08T05:09:49.661Z,1.90
2022-12-08T05:12:16.046Z,2.35
2022-12-08T05:14:42.443Z,1.90
2022-12-08T05:17:09.911Z,1.80
2022-12-08T05:19:36.624Z,1.85
2022-12-08T05:22:03.245Z,2.40
2022-12-08T05:24:29.657Z,1.50
2022-12-08T05:26:56.018Z,1.90
2022-12-08T05:29:22.426Z,1.50
2022-12-08T05:31:48.979Z,1.80
2022-12-08T05:34:15.692Z,1.75
2022-12-08T05:36:42.106Z,1.98
2022-12-08T05:39:09.287Z,1.92
2022-12-08T05:41:35.697Z,1.98
2022-12-08T05:44:02.070Z,1.83
2022-12-08T05:46:28.537Z,1.98
2022-12-08T05:48:54.974Z,1.83
2022-12-08T05:51:22.278Z,1.80
2022-12-08T05:53:49.405Z,2.00
2022-12-08T05:56:15.926Z,2.35
2022-12-08T05:58:42.701Z,2.00
2022-12-08T06:01:18.504Z,1.48
2022-12-08T06:03:45.024Z,1.80
2022-12-08T06:06:11.399Z,1.98
2022-12-08T06:08:37.774Z,2.40
2022-12-08T06:11:04.203Z,2.78
2022-12-08T06:13:30.620Z,2.10
2022-12-08T06:16:03.283Z,2.25
2022-12-08T06:18:32.821Z,1.60
2022-12-08T06:21:03.478Z,1.98
2022-12-08T06:23:29.929Z,3.42
2022-12-08T06:26:00.324Z,2.28
2022-12-08T06:28:26.678Z,1.70
2022-12-08T06:30:53.228Z,2.20
2022-12-08T06:33:19.600Z,1.60
2022-12-08T06:35:45.980Z,1.45
2022-12-08T06:38:12.548Z,2.00
2022-12-08T06:40:38.903Z,1.80
2022-12-08T06:43:05.311Z,1.80
2022-12-08T06:45:31.800Z,1.60
2022-12-08T06:47:58.387Z,2.03
2022-12-08T06:50:24.810Z,2.13
2022-12-08T06:53:01.061Z,1.38
2022-12-08T06:58:18.275Z,1.70
2022-12-08T07:00:44.782Z,1.65
2022-12-08T07:03:11.959Z,2.00
2022-12-08T07:05:38.978Z,1.55
2022-12-08T07:08:07.291Z,1.50
2022-12-08T07:10:33.791Z,1.48
2022-12-08T07:13:00.237Z,1.50
2022-12-08T07:15:26.897Z,1.40
2022-12-08T07:17:59.379Z,1.70
2022-12-08T07:20:26.470Z,1.65
2022-12-08T07:22:53.303Z,1.42
2022-12-08T07:25:19.807Z,2.50
2022-12-08T07:27:46.268Z,2.10
2022-12-08T07:30:13.144Z,1.45
2022-12-08T07:32:39.743Z,1.52
2022-12-08T07:35:06.695Z,1.67
2022-12-08T07:37:33.787Z,2.28
2022-12-08T07:40:00.444Z,1.63
2022-12-08T07:42:27.030Z,1.85
2022-12-08T07:44:53.415Z,2.03
2022-12-08T07:47:19.764Z,1.90
2022-12-08T07:49:46.151Z,2.35
2022-12-08T07:52:12.617Z,1.95
2022-12-08T07:54:39.250Z,1.98
2022-12-08T07:57:06.162Z,2.15
2022-12-08T07:59:32.795Z,2.03
2022-12-08T08:02:22.415Z,2.20
2022-12-08T08:04:45.608Z,2.00
2022-12-08T08:07:12.281Z,1.90
2022-12-08T08:09:38.732Z,2.20
2022-12-08T08:12:29.683Z,1.95
2022-12-08T08:14:51.876Z,2.55
2022-12-08T08:17:18.358Z,1.80
2022-12-08T08:19:46.389Z,2.13
2022-12-08T08:22:12.998Z,1.97
2022-12-08T08:24:44.625Z,1.80
2022-12-08T08:27:11.575Z,2.17
2022-12-08T08:29:38.024Z,2.00
2022-12-08T08:32:04.453Z,1.98
2022-12-08T08:34:31.096Z,2.60
2022-12-08T08:36:57.596Z,2.50
2022-12-08T08:39:24.106Z,2.15
2022-12-08T08:41:50.710Z,2.63
2022-12-08T08:44:17.195Z,2.25
2022-12-08T08:46:43.621Z,2.60
2022-12-08T08:49:10.077Z,2.17
2022-12-08T08:51:36.486Z,2.38
2022-12-08T08:54:02.933Z,2.13
2022-12-08T08:56:29.627Z,2.37
2022-12-08T08:58:56.155Z,2.85
2022-12-08T09:01:24.306Z,2.80
2022-12-08T09:03:50.863Z,1.90
2022-12-08T09:06:17.794Z,1.88
2022-12-08T09:08:44.538Z,1.88
2022-12-08T09:11:11.450Z,1.67
2022-12-08T09:13:38.250Z,1.58
2022-12-08T09:16:05.752Z,1.30
2022-12-08T09:18:32.961Z,1.10
2022-12-08T09:21:06.334Z,1.10
2022-12-08T09:23:35.664Z,1.00
2022-12-08T09:26:03.067Z,1.60
2022-12-08T09:28:29.522Z,1.27
2022-12-08T09:30:56.025Z,1.00
2022-12-08T09:33:22.483Z,1.02
2022-12-08T09:35:49.126Z,1.15
2022-12-08T09:38:15.544Z,1.05
2022-12-08T09:40:52.352Z,0.90
2022-12-08T09:43:36.836Z,1.13
2022-12-08T09:46:05.183Z,1.10
2022-12-08T09:48:37.617Z,1.25
2022-12-08T09:51:04.913Z,1.42
2022-12-08T09:53:49.632Z,1.30
2022-12-08T09:56:18.627Z,1.50
2022-12-08T09:59:03.627Z,1.70
2022-12-08T10:01:31.816Z,2.00
2022-12-08T10:03:58.494Z,2.17
2022-12-08T10:06:28.526Z,1.60
2022-12-08T10:09:00.837Z,1.60
2022-12-08T10:11:32.308Z,1.70
2022-12-08T10:14:10.248Z,1.45
2022-12-08T10:16:41.606Z,1.05
2022-12-08T10:19:17.689Z,1.15
2022-12-08T10:21:44.272Z,1.23
2022-12-08T10:24:33.949Z,1.42
2022-12-08T10:27:01.706Z,1.55
2022-12-08T10:29:28.169Z,1.30
2022-12-08T10:31:57.368Z,1.50
2022-12-08T10:34:24.339Z,1.85
2022-12-08T10:36:57.882Z,1.90
2022-12-08T10:39:31.691Z,1.50
2022-12-08T10:42:09.142Z,1.83
2022-12-08T10:44:53.522Z,1.60
2022-12-08T10:47:24.086Z,1.83
2022-12-08T10:50:07.036Z,1.30
2022-12-08T10:52:38.321Z,1.02
2022-12-08T10:55:13.431Z,1.10
2022-12-08T10:57:39.896Z,1.35
2022-12-08T11:00:12.431Z,1.35
2022-12-08T11:03:00.686Z,1.10
2022-12-08T11:05:29.329Z,1.30
2022-12-08T11:07:55.898Z,1.05
2022-12-08T11:10:28.922Z,1.02
2022-12-08T11:12:57.919Z,1.20
2022-12-08T11:15:24.491Z,1.13
2022-12-08T11:18:00.207Z,1.35
2022-12-08T11:20:26.862Z,0.98
2022-12-08T11:22:54.634Z,1.63
2022-12-08T11:25:22.858Z,0.90
2022-12-08T11:27:50.567Z,0.90
2022-12-08T11:30:21.243Z,0.90
2022-12-08T11:32:52.358Z,0.80
2022-12-08T11:35:26.837Z,0.90
2022-12-08T11:38:03.331Z,0.90
2022-12-08T11:40:42.154Z,1.20
2022-12-08T11:43:21.307Z,1.00
2022-12-08T11:45:50.311Z,1.50
2022-12-08T11:48:19.146Z,1.25
2022-12-08T11:50:48.157Z,1.10
2022-12-08T11:53:18.553Z,1.23
2022-12-08T11:55:54.748Z,1.15
2022-12-08T11:58:27.226Z,1.50
2022-12-08T12:00:53.681Z,1.10
2022-12-08T12:03:24.886Z,1.15
2022-12-08T12:08:54.143Z,1.13
2022-12-08T12:11:54.335Z,1.40
2022-12-08T12:14:39.779Z,14.88
2022-12-08T12:17:07.403Z,15.30
2022-12-08T12:19:36.428Z,3.30
2022-12-08T12:22:12.123Z,5.97
2022-12-08T12:24:38.950Z,1.40
2022-12-08T12:27:15.202Z,1.10
2022-12-08T12:30:05.816Z,0.98
2022-12-08T12:32:44.709Z,2.90
2022-12-08T12:35:26.815Z,1.38
2022-12-08T12:37:56.023Z,0.98
2022-12-08T12:40:24.193Z,1.70
2022-12-08T12:42:56.815Z,2.33
2022-12-08T12:45:23.183Z,1.30
2022-12-08T12:47:55.841Z,1.30
2022-12-08T12:50:34.841Z,1.30
2022-12-08T12:53:03.432Z,1.40
2022-12-08T12:55:50.183Z,1.27
2022-12-08T12:58:21.343Z,1.20
2022-12-08T13:00:47.782Z,1.52
2022-12-08T13:03:17.850Z,1.58
2022-12-08T13:05:52.458Z,1.48
2022-12-08T13:08:23.376Z,1.90
2022-12-08T13:10:58.880Z,1.50
2022-12-08T13:13:25.677Z,1.60
2022-12-08T13:15:57.248Z,1.70
2022-12-08T13:18:23.615Z,1.23
2022-12-08T13:21:15.096Z,1.10
2022-12-08T13:23:44.669Z,1.13
2022-12-08T13:26:16.988Z,1.17
2022-12-08T13:28:58.688Z,1.70
2022-12-08T13:31:43.875Z,1.20
2022-12-08T13:34:27.097Z,1.02
2022-12-08T13:36:53.576Z,1.05
2022-12-08T13:39:21.587Z,1.30
2022-12-08T13:41:52.070Z,1.38
2022-12-08T13:47:59.663Z,0.87
2022-12-08T13:59:06.362Z,1.55
2022-12-08T14:01:35.270Z,1.80
2022-12-08T14:04:34.293Z,1.40
2022-12-08T14:06:50.335Z,5.35
2022-12-08T14:09:24.987Z,15.53
2022-12-08T14:11:54.869Z,2.38
2022-12-08T14:14:46.031Z,1.70
2022-12-08T14:17:13.486Z,1.45
2022-12-08T14:19:42.473Z,1.50
2022-12-08T14:22:13.883Z,2.17
2022-12-08T14:24:40.964Z,1.50
2022-12-08T14:27:08.714Z,2.08
2022-12-08T14:29:38.135Z,3.00
2022-12-08T14:32:06.126Z,2.88
2022-12-08T14:34:40.639Z,2.40
2022-12-08T14:37:11.105Z,2.75
2022-12-08T14:39:38.853Z,3.10
2022-12-08T14:42:05.697Z,2.55
2022-12-08T14:44:32.969Z,1.50
2022-12-08T14:47:06.278Z,1.50
2022-12-08T14:49:34.160Z,2.03
2022-12-08T14:52:01.100Z,1.55
2022-12-08T14:54:29.719Z,1.63
2022-12-08T14:56:57.021Z,1.50
2022-12-08T14:59:34.159Z,1.80
2022-12-08T15:02:13.266Z,2.10
2022-12-08T15:04:41.146Z,2.22
2022-12-08T15:07:12.023Z,2.03
2022-12-08T15:09:41.014Z,1.60
2022-12-08T15:12:13.204Z,1.90
2022-12-08T15:14:43.575Z,1.33
2022-12-08T15:17:28.770Z,1.70
2022-12-08T15:19:56.000Z,2.58
2022-12-08T15:22:25.897Z,2.97
2022-12-08T15:24:52.779Z,16.48
2022-12-08T15:27:20.189Z,12.57
2022-12-08T15:29:47.297Z,7.20
2022-12-08T15:32:16.578Z,4.60
2022-12-08T15:34:42.949Z,2.92
2022-12-08T15:37:18.374Z,2.78
2022-12-08T15:39:44.735Z,3.10
2022-12-08T15:42:14.861Z,18.42
2022-12-08T15:44:43.390Z,18.92
2022-12-08T15:47:14.920Z,9.32
2022-12-08T15:49:41.345Z,9.98
2022-12-08T15:52:13.182Z,12.73
2022-12-08T15:54:39.626Z,9.80
2022-12-08T15:57:35.871Z,4.07
2022-12-08T15:59:52.661Z,3.53
2022-12-08T16:02:22.601Z,2.90
2022-12-08T16:07:38.169Z,5.50
2022-12-08T16:10:06.372Z,5.60
2022-12-08T16:15:51.754Z,3.40
2022-12-08T16:18:26.853Z,3.35
2022-12-08T16:23:44.672Z,2.28
2022-12-08T16:26:54.624Z,2.22
2022-12-08T16:29:07.553Z,2.08
2022-12-08T16:31:34.460Z,1.75
2022-12-08T16:34:00.869Z,1.55
2022-12-08T16:36:27.268Z,1.63
2022-12-08T16:38:53.665Z,1.67
2022-12-08T16:41:38.666Z,1.60
2022-12-08T16:44:05.777Z,1.20
2022-12-08T16:46:32.577Z,1.25
2022-12-08T16:48:59.150Z,1.50
2022-12-08T16:51:27.246Z,1.27
2022-12-08T16:53:54.546Z,1.20
2022-12-08T16:56:22.285Z,1.50
2022-12-08T16:58:50.522Z,1.38
2022-12-08T17:01:18.642Z,2.13
2022-12-08T17:04:01.425Z,2.20
2022-12-08T17:06:32.598Z,1.60
2022-12-08T17:08:59.473Z,1.63
2022-12-08T17:11:28.536Z,1.35
2022-12-08T17:13:54.970Z,1.23
2022-12-08T17:16:22.192Z,1.40
2022-12-08T17:18:48.706Z,1.00
2022-12-08T17:21:16.529Z,1.08
2022-12-08T17:23:43.104Z,1.00
2022-12-08T17:26:09.847Z,0.80
2022-12-08T17:28:59.328Z,1.08
2022-12-08T17:31:27.821Z,0.98
2022-12-08T17:33:57.800Z,2.80
2022-12-08T17:36:24.391Z,2.17
2022-12-08T17:38:50.729Z,1.17
2022-12-08T17:41:17.096Z,4.03
2022-12-08T17:43:43.495Z,2.08
2022-12-08T17:46:10.322Z,10.40
2022-12-08T17:48:37.170Z,13.48
2022-12-08T17:51:03.570Z,4.13
2022-12-08T17:53:34.276Z,3.35
2022-12-08T17:56:03.865Z,2.42
2022-12-08T17:58:31.119Z,5.05
2022-12-08T18:00:57.593Z,10.43
2022-12-08T18:03:24.012Z,7.97
2022-12-08T18:05:50.970Z,1.65
2022-12-08T18:08:17.401Z,8.48
2022-12-08T18:10:43.887Z,20.15
2022-12-08T18:13:10.471Z,9.25
2022-12-08T18:15:39.325Z,1.73
2022-12-08T18:18:05.946Z,2.03
2022-12-08T18:20:32.592Z,9.93
2022-12-08T18:22:58.961Z,10.27
2022-12-08T18:25:25.407Z,9.25
2022-12-08T18:27:51.873Z,7.53
2022-12-08T18:30:18.394Z,6.63
2022-12-08T18:32:45.254Z,4.63
2022-12-08T18:35:11.776Z,4.55
2022-12-08T18:37:41.325Z,1.55
2022-12-08T18:40:08.279Z,2.13
2022-12-08T18:42:34.832Z,2.70
2022-12-08T18:45:06.670Z,1.65
2022-12-08T18:47:37.208Z,2.50
2022-12-08T18:50:07.643Z,1.83
2022-12-08T18:52:34.436Z,2.30
2022-12-08T18:55:08.420Z,1.98
2022-12-08T18:57:37.568Z,1.42
2022-12-08T19:00:05.113Z,2.00
2022-12-08T19:02:31.992Z,1.50
2022-12-08T19:04:59.680Z,1.83
2022-12-08T19:07:26.058Z,1.98
2022-12-08T19:09:53.080Z,1.75
2022-12-08T19:12:19.520Z,1.55
2022-12-08T19:14:45.932Z,6.57
2022-12-08T19:17:12.309Z,3.50
2022-12-08T19:19:38.728Z,10.38
2022-12-08T19:22:05.156Z,6.57
2022-12-08T19:24:34.723Z,5.25
2022-12-08T19:27:01.146Z,3.45
2022-12-08T19:29:27.588Z,4.20
2022-12-08T19:31:54.032Z,3.45
2022-12-08T19:34:20.602Z,3.15
2022-12-08T19:36:47.040Z,2.50
2022-12-08T19:39:34.530Z,1.83
2022-12-08T19:42:19.535Z,1.43
2022-12-08T19:44:54.833Z,1.95
2022-12-08T19:47:22.378Z,1.67
2022-12-08T19:49:48.908Z,2.08
2022-12-08T19:52:15.433Z,2.38
2022-12-08T19:54:41.964Z,1.77
2022-12-08T19:57:08.426Z,5.05
2022-12-08T19:59:34.844Z,5.35
2022-12-08T20:02:01.383Z,8.05
2022-12-08T20:04:27.871Z,8.30
2022-12-08T20:06:55.072Z,4.53
2022-12-08T20:09:23.389Z,7.40
2022-12-08T20:11:50.896Z,5.85
2022-12-08T20:14:21.164Z,15.70
2022-12-08T20:16:47.678Z,7.72
2022-12-08T20:19:14.181Z,11.23
2022-12-08T20:21:40.732Z,14.85
2022-12-08T20:24:07.302Z,8.82
2022-12-08T20:26:33.666Z,8.95
2022-12-08T20:29:00.112Z,9.65
2022-12-08T20:31:27.930Z,6.18
2022-12-08T20:33:54.562Z,4.55
2022-12-08T20:36:21.749Z,8.95
2022-12-08T20:38:49.660Z,7.93
2022-12-08T20:41:16.248Z,7.95
2022-12-08T20:43:43.295Z,6.63
2022-12-08T20:46:10.804Z,8.88
2022-12-08T20:48:37.549Z,7.35
2022-12-08T20:51:04.242Z,5.40
2022-12-08T20:53:30.890Z,4.47
2022-12-08T20:55:57.446Z,6.70
2022-12-08T20:58:24.079Z,4.88
2022-12-08T21:00:50.669Z,5.75
2022-12-08T21:03:18.628Z,6.97
2022-12-08T21:05:49.363Z,5.35
2022-12-08T21:08:16.394Z,6.03
2022-12-08T21:10:44.093Z,6.47
2022-12-08T21:13:11.025Z,5.22
2022-12-08T21:15:37.878Z,6.07
2022-12-08T21:18:04.518Z,6.78
2022-12-08T21:20:31.234Z,6.97
2022-12-08T21:22:57.649Z,7.28
2022-12-08T21:25:24.113Z,9.15
2022-12-08T21:27:50.515Z,7.57
2022-12-08T21:30:17.183Z,7.78
2022-12-08T21:32:43.657Z,7.43
2022-12-08T21:35:10.761Z,8.25
2022-12-08T21:37:37.357Z,7.50
2022-12-08T21:40:05.172Z,7.85
2022-12-08T21:42:43.969Z,8.30
2022-12-08T21:45:15.173Z,7.53
2022-12-08T21:47:41.786Z,7.80
2022-12-08T21:50:09.005Z,7.85
2022-12-08T21:52:40.088Z,8.45
2022-12-08T21:55:06.860Z,7.57
2022-12-08T21:57:33.300Z,7.78
2022-12-08T21:59:59.728Z,8.10
2022-12-08T22:02:26.345Z,7.68
2022-12-08T22:04:53.086Z,8.32
2022-12-08T22:07:20.308Z,6.85
2022-12-08T22:09:47.398Z,9.50
2022-12-08T22:12:14.252Z,7.87
2022-12-08T22:14:40.824Z,8.05
2022-12-08T22:17:07.425Z,7.90
2022-12-08T22:19:34.481Z,6.95
2022-12-08T22:22:01.109Z,8.95
2022-12-08T22:24:29.387Z,8.93
2022-12-08T22:26:55.758Z,8.95
2022-12-08T22:29:22.228Z,8.50
2022-12-08T22:31:48.742Z,8.38
2022-12-08T22:34:15.158Z,9.15
2022-12-08T22:36:42.660Z,7.93
2022-12-08T22:39:12.359Z,8.43
2022-12-08T22:41:38.884Z,8.85
2022-12-08T22:44:06.228Z,8.95
2022-12-08T22:46:32.913Z,8.40
2022-12-08T22:48:59.679Z,8.97
2022-12-08T22:51:26.256Z,8.10
2022-12-08T22:53:52.704Z,7.82
2022-12-08T22:56:19.677Z,8.60
2022-12-08T22:58:46.446Z,7.63
2022-12-08T23:01:26.886Z,9.10
2022-12-08T23:03:53.505Z,9.07
2022-12-08T23:06:20.352Z,8.52
2022-12-08T23:08:47.229Z,8.57
2022-12-08T23:11:13.684Z,7.55
2022-12-08T23:13:40.293Z,8.30
2022-12-08T23:16:08.350Z,9.07
2022-12-08T23:18:37.909Z,9.40
2022-12-08T23:21:05.564Z,8.45
2022-12-08T23:23:31.961Z,9.55
2022-12-08T23:25:58.348Z,8.63
2022-12-08T23:28:24.923Z,8.30
2022-12-08T23:30:51.511Z,9.05
2022-12-08T23:33:17.950Z,7.43
2022-12-08T23:35:44.557Z,7.20
2022-12-08T23:38:10.974Z,6.97
2022-12-08T23:40:37.335Z,7.97
2022-12-08T23:43:04.760Z,7.72
2022-12-08T23:45:31.296Z,7.22
2022-12-08T23:47:57.693Z,6.35
2022-12-08T23:50:24.052Z,6.30
2022-12-08T23:52:50.461Z,6.53
2022-12-08T23:55:17.070Z,7.55
2022-12-08T23:57:43.648Z,6.60
